Time;durP1;ratioP1;P1;durP2;ratioP2;P2;SDS_P1;SDS_P2;PMS_P1;PMS_P2;Temp;Humidity;BMP_temperature;BMP_pressure;BME280_temperature;BME280_humidity;BME280_pressure;Samples;Min_cycle;Max_cycle;Signal;HPM_P1;HPM_P2
2022/03/24 00:00:35;;;;;;;39.97;19.60;;;8.50;1.00;;;;;;5093973;28;20462;-63
2022/03/24 00:03:01;;;;;;;36.77;18.30;;;8.40;1.00;;;;;;5094044;28;20250;-62
2022/03/24 00:05:30;;;;;;;33.97;17.67;;;8.50;1.00;;;;;;5093449;28;20656;-62
2022/03/24 00:07:56;;;;;;;35.03;18.10;;;8.50;1.00;;;;;;5093795;28;20203;-62
2022/03/24 00:10:23;;;;;;;34.97;18.57;;;8.50;1.00;;;;;;5093553;28;20743;-62
2022/03/24 00:12:51;;;;;;;34.23;18.30;;;8.50;1.00;;;;;;5093086;28;20206;-62
2022/03/24 00:15:18;;;;;;;36.17;17.50;;;8.40;1.00;;;;;;5093557;28;20716;-62
2022/03/24 00:17:45;;;;;;;37.90;18.47;;;8.40;1.00;;;;;;5093210;28;20210;-62
2022/03/24 00:20:12;;;;;;;32.83;18.50;;;8.30;1.00;;;;;;5093529;28;20583;-62
2022/03/24 00:22:41;;;;;;;34.77;18.00;;;8.30;1.00;;;;;;5093367;28;20230;-62
2022/03/24 00:25:09;;;;;;;33.33;17.27;;;8.20;1.00;;;;;;5093695;28;20225;-62
2022/03/24 00:27:35;;;;;;;37.17;18.57;;;8.20;1.00;;;;;;5093129;28;20245;-62
2022/03/24 00:30:03;;;;;;;34.03;18.53;;;8.20;1.00;;;;;;5093425;28;20209;-62
2022/03/24 00:32:29;;;;;;;31.80;17.20;;;8.10;1.00;;;;;;5093596;28;20299;-62
2022/03/24 00:34:56;;;;;;;35.60;17.33;;;8.00;1.00;;;;;;5093145;28;20229;-62
2022/03/24 00:37:25;;;;;;;34.33;18.17;;;7.90;1.00;;;;;;5092942;28;20207;-62
2022/03/24 00:39:53;;;;;;;34.23;17.70;;;7.90;1.00;;;;;;5093292;28;20214;-62
2022/03/24 00:42:21;;;;;;;31.57;17.00;;;7.90;1.00;;;;;;5093300;28;20667;-62
2022/03/24 00:44:47;;;;;;;38.20;18.47;;;7.90;1.00;;;;;;5093082;28;20236;-62
2022/03/24 00:47:14;;;;;;;34.47;17.67;;;7.90;1.00;;;;;;5092902;28;20206;-62
2022/03/24 00:49:42;;;;;;;36.20;18.07;;;7.80;1.00;;;;;;5093185;28;20206;-62
2022/03/24 00:52:10;;;;;;;31.77;17.97;;;7.80;1.00;;;;;;5093061;28;20260;-62
2022/03/24 00:54:38;;;;;;;38.63;18.33;;;7.70;1.00;;;;;;5093361;28;20202;-62
2022/03/24 00:57:07;;;;;;;39.83;18.70;;;7.70;1.00;;;;;;5092497;28;20726;-62
2022/03/24 00:59:34;;;;;;;31.60;16.63;;;7.70;1.00;;;;;;5093180;28;20236;-62
2022/03/24 01:02:01;;;;;;;35.27;18.03;;;7.60;1.00;;;;;;5093011;28;20206;-62
2022/03/24 01:04:28;;;;;;;31.87;17.53;;;7.50;1.00;;;;;;5092659;28;20222;-62
2022/03/24 01:06:55;;;;;;;34.30;17.63;;;7.50;1.00;;;;;;5092866;28;20222;-62
2022/03/24 01:09:21;;;;;;;34.43;18.30;;;7.50;1.00;;;;;;5092932;28;20637;-62
2022/03/24 01:11:48;;;;;;;33.70;16.70;;;7.40;1.00;;;;;;5092780;28;20205;-62
2022/03/24 01:14:16;;;;;;;36.40;18.17;;;7.40;1.00;;;;;;5092537;28;20678;-62
2022/03/24 01:16:44;;;;;;;34.83;17.40;;;7.30;1.00;;;;;;5092238;28;20230;-62
2022/03/24 01:19:12;;;;;;;36.77;18.03;;;7.30;1.00;;;;;;5092511;28;20675;-62
2022/03/24 01:21:39;;;;;;;35.03;17.97;;;7.20;1.00;;;;;;5092893;28;20579;-62
2022/03/24 01:24:06;;;;;;;34.83;17.90;;;7.20;1.00;;;;;;5092243;28;20314;-62
2022/03/24 01:26:33;;;;;;;37.80;16.53;;;7.20;1.00;;;;;;5092179;28;20232;-62
2022/03/24 01:28:59;;;;;;;33.57;17.47;;;7.20;1.00;;;;;;5092454;28;20208;-62
2022/03/24 01:31:28;;;;;;;34.10;17.63;;;7.20;1.00;;;;;;5092306;28;20246;-62
2022/03/24 01:33:54;;;;;;;32.73;16.70;;;7.10;1.00;;;;;;5092847;28;20208;-62
2022/03/24 01:36:21;;;;;;;31.53;16.17;;;7.10;1.00;;;;;;5092036;28;20229;-63
2022/03/24 01:38:48;;;;;;;31.90;16.53;;;7.00;1.00;;;;;;5092533;28;20200;-62
2022/03/24 01:41:15;;;;;;;35.30;17.13;;;7.00;1.00;;;;;;5092094;28;20216;-62
2022/03/24 01:43:42;;;;;;;31.70;17.97;;;7.00;1.00;;;;;;5092308;28;20220;-62
2022/03/24 01:46:09;;;;;;;38.47;17.00;;;6.90;1.00;;;;;;5091646;28;20220;-62
2022/03/24 01:48:37;;;;;;;32.63;17.00;;;6.90;1.00;;;;;;5092219;28;20447;-62
2022/03/24 01:51:03;;;;;;;30.83;16.53;;;6.90;1.00;;;;;;5092262;28;20869;-62
2022/03/24 01:53:30;;;;;;;30.40;16.23;;;6.80;1.00;;;;;;5091850;28;20492;-62
2022/03/24 01:55:58;;;;;;;33.47;17.27;;;6.80;1.00;;;;;;5091676;28;20505;-62
2022/03/24 01:58:25;;;;;;;36.80;17.57;;;6.80;1.00;;;;;;5091831;28;20442;-62
2022/03/24 02:00:52;;;;;;;39.30;17.57;;;6.70;1.00;;;;;;5091890;28;20204;-62
2022/03/24 02:03:21;;;;;;;30.77;17.00;;;6.70;1.00;;;;;;5091737;28;20924;-62
2022/03/24 02:05:49;;;;;;;34.00;16.93;;;6.70;1.00;;;;;;5091764;28;20297;-62
2022/03/24 02:08:16;;;;;;;35.47;18.23;;;6.70;1.00;;;;;;5091793;28;20216;-62
2022/03/24 02:10:43;;;;;;;36.37;17.20;;;6.60;1.00;;;;;;5091533;28;20454;-62
2022/03/24 02:13:09;;;;;;;33.10;17.23;;;6.60;1.00;;;;;;5091601;28;20869;-62
2022/03/24 02:15:36;;;;;;;33.47;17.10;;;6.60;1.00;;;;;;5091503;28;20470;-62
2022/03/24 02:18:03;;;;;;;40.30;18.40;;;6.50;1.00;;;;;;5091666;28;20450;-62
2022/03/24 02:20:33;;;;;;;31.90;17.70;;;6.40;1.00;;;;;;5091789;28;20507;-62
2022/03/24 02:23:02;;;;;;;33.77;17.23;;;6.40;1.00;;;;;;5091773;28;20451;-62
2022/03/24 02:25:32;;;;;;;41.10;18.27;;;6.40;1.00;;;;;;5091586;28;20953;-63
2022/03/24 02:28:02;;;;;;;29.17;16.20;;;6.40;1.00;;;;;;5091134;28;20447;-62
2022/03/24 02:30:30;;;;;;;34.50;16.77;;;6.30;1.00;;;;;;5091937;28;20458;-62
2022/03/24 02:32:57;;;;;;;33.80;16.60;;;6.30;1.00;;;;;;5091552;28;20530;-62
2022/03/24 02:35:24;;;;;;;34.80;17.43;;;6.30;1.00;;;;;;5092341;28;20557;-62
2022/03/24 02:37:51;;;;;;;37.50;17.87;;;6.30;1.00;;;;;;5095721;28;20537;-62
2022/03/24 02:40:20;;;;;;;37.13;18.10;;;6.20;1.00;;;;;;5095836;28;20818;-62
2022/03/24 02:42:47;;;;;;;37.43;17.43;;;6.10;1.00;;;;;;5095447;28;20951;-62
2022/03/24 02:45:14;;;;;;;30.23;16.43;;;6.10;1.00;;;;;;5095625;28;20490;-62
2022/03/24 02:47:41;;;;;;;31.30;17.43;;;6.10;1.00;;;;;;5095461;28;20456;-62
2022/03/24 02:50:10;;;;;;;37.90;18.20;;;6.10;1.00;;;;;;5095446;28;20446;-62
2022/03/24 02:52:36;;;;;;;35.20;17.43;;;6.10;1.00;;;;;;5095495;28;20450;-63
2022/03/24 02:55:04;;;;;;;34.77;17.37;;;6.00;1.00;;;;;;5094926;28;20519;-62
2022/03/24 02:57:34;;;;;;;37.00;18.20;;;6.10;1.00;;;;;;5095251;28;20446;-62
2022/03/24 03:00:01;;;;;;;36.43;18.57;;;6.10;1.00;;;;;;5095314;28;20442;-62
2022/03/24 03:02:27;;;;;;;34.23;17.57;;;6.00;1.00;;;;;;5095212;28;20828;-62
2022/03/24 03:04:54;;;;;;;32.40;17.07;;;6.00;1.00;;;;;;5094950;28;20672;-63
2022/03/24 03:07:21;;;;;;;34.30;18.37;;;6.00;1.00;;;;;;5094421;28;20465;-62
2022/03/24 03:09:48;;;;;;;37.50;17.17;;;5.90;1.00;;;;;;5095363;28;20457;-62
2022/03/24 03:12:16;;;;;;;37.70;18.07;;;5.90;1.00;;;;;;5094910;28;20462;-62
2022/03/24 03:14:46;;;;;;;36.77;17.30;;;5.90;1.00;;;;;;5094998;28;20503;-62
2022/03/24 03:17:15;;;;;;;36.10;17.77;;;5.90;1.00;;;;;;5094600;28;20454;-62
2022/03/24 03:19:43;;;;;;;35.13;18.70;;;5.90;1.00;;;;;;5094765;28;20450;-62
2022/03/24 03:22:10;;;;;;;32.90;18.40;;;5.90;1.00;;;;;;5094406;28;20450;-62
2022/03/24 03:24:39;;;;;;;39.17;18.47;;;5.80;1.00;;;;;;5094784;28;20854;-62
2022/03/24 03:27:06;;;;;;;37.33;18.33;;;5.80;1.00;;;;;;5094480;28;20578;-62
2022/03/24 03:29:33;;;;;;;34.07;17.37;;;5.80;1.00;;;;;;5094582;28;20453;-62
2022/03/24 03:32:02;;;;;;;34.83;18.93;;;5.70;1.00;;;;;;5094599;28;20532;-62
2022/03/24 03:34:29;;;;;;;35.83;18.40;;;5.80;1.00;;;;;;5094374;28;20446;-62
2022/03/24 03:36:56;;;;;;;35.53;17.47;;;5.70;1.00;;;;;;5094419;28;20523;-62
2022/03/24 03:39:24;;;;;;;30.97;18.07;;;5.70;1.00;;;;;;5094410;28;20552;-62
2022/03/24 03:41:52;;;;;;;38.00;19.23;;;5.70;1.00;;;;;;5094528;28;20450;-62
2022/03/24 03:44:19;;;;;;;36.70;18.13;;;5.70;1.00;;;;;;5094286;28;20517;-62
2022/03/24 03:46:46;;;;;;;38.47;18.43;;;5.70;1.00;;;;;;5093367;28;20482;-62
2022/03/24 03:49:14;;;;;;;32.03;17.77;;;5.70;1.00;;;;;;5094191;28;20504;-62
2022/03/24 03:51:41;;;;;;;38.20;19.53;;;5.70;1.00;;;;;;5094363;28;20554;-62
2022/03/24 03:54:08;;;;;;;35.67;17.67;;;5.70;1.00;;;;;;5094411;28;20496;-62
2022/03/24 03:56:36;;;;;;;36.80;18.10;;;5.70;1.00;;;;;;5092987;28;20561;-62
2022/03/24 03:59:03;;;;;;;34.47;17.43;;;5.70;1.00;;;;;;5094182;28;20533;-62
2022/03/24 04:01:30;;;;;;;33.27;17.83;;;5.70;1.00;;;;;;5093767;28;20442;-62
2022/03/24 04:03:57;;;;;;;35.07;17.50;;;5.70;1.00;;;;;;5094157;28;20535;-62
2022/03/24 04:06:26;;;;;;;38.90;19.70;;;5.70;1.00;;;;;;5093607;28;20478;-62
2022/03/24 04:08:53;;;;;;;37.10;19.13;;;5.70;1.00;;;;;;5093924;28;20442;-62
2022/03/24 04:11:19;;;;;;;38.73;19.80;;;5.70;1.00;;;;;;5094027;28;20449;-62
2022/03/24 04:13:46;;;;;;;35.23;17.77;;;5.70;1.00;;;;;;5093723;28;20446;-62
2022/03/24 04:16:13;;;;;;;39.97;18.37;;;5.70;1.00;;;;;;5093450;28;20517;-62
2022/03/24 04:18:41;;;;;;;43.47;19.07;;;5.70;1.00;;;;;;5093845;28;20446;-62
2022/03/24 04:21:09;;;;;;;38.43;18.07;;;5.70;1.00;;;;;;5093919;28;20450;-62
2022/03/24 04:23:38;;;;;;;38.33;18.87;;;5.70;1.00;;;;;;5093512;28;20453;-62
2022/03/24 04:26:04;;;;;;;34.90;17.90;;;5.70;1.00;;;;;;5093321;28;20470;-62
2022/03/24 04:28:31;;;;;;;35.43;18.47;;;5.70;1.00;;;;;;5093483;28;20532;-62
2022/03/24 04:30:58;;;;;;;37.73;18.40;;;5.70;1.00;;;;;;5093983;28;20453;-62
2022/03/24 04:33:25;;;;;;;37.63;18.17;;;5.70;1.00;;;;;;5093693;28;20450;-62
2022/03/24 04:35:52;;;;;;;33.77;18.33;;;5.60;1.00;;;;;;5093118;28;20838;-62
2022/03/24 04:38:19;;;;;;;35.13;18.40;;;5.60;1.00;;;;;;5093015;28;20507;-62
2022/03/24 04:40:48;;;;;;;34.20;19.03;;;5.60;1.00;;;;;;5093084;28;20442;-62
2022/03/24 04:43:15;;;;;;;35.93;18.47;;;5.50;1.00;;;;;;5093461;28;20446;-62
2022/03/24 04:45:42;;;;;;;34.50;18.47;;;5.50;1.00;;;;;;5093093;28;20498;-62
2022/03/24 04:48:09;;;;;;;40.67;20.30;;;5.50;1.00;;;;;;5092820;28;20446;-62
2022/03/24 04:50:36;;;;;;;38.50;19.63;;;5.50;1.00;;;;;;5093049;28;20529;-62
2022/03/24 04:53:03;;;;;;;41.10;20.90;;;5.50;1.00;;;;;;5092988;28;20507;-62
2022/03/24 04:55:30;;;;;;;35.93;18.80;;;5.50;1.00;;;;;;5092962;28;20553;-62
2022/03/24 04:57:58;;;;;;;35.47;18.30;;;5.50;1.00;;;;;;5092280;28;20454;-62
2022/03/24 05:00:24;;;;;;;36.33;20.03;;;5.50;1.00;;;;;;5092858;28;21049;-62
2022/03/24 05:02:51;;;;;;;41.80;19.70;;;5.50;1.00;;;;;;5092776;28;20457;-62
2022/03/24 05:05:18;;;;;;;44.73;19.80;;;5.50;1.00;;;;;;5092545;28;20490;-62
2022/03/24 05:07:44;;;;;;;39.37;20.57;;;5.40;1.00;;;;;;5092598;28;20530;-61
2022/03/24 05:10:11;;;;;;;41.20;19.27;;;5.40;1.00;;;;;;5092582;28;20510;-61
2022/03/24 05:12:40;;;;;;;38.10;20.00;;;5.40;1.00;;;;;;5092986;28;20508;-61
2022/03/24 05:15:12;;;;;;;41.43;19.90;;;5.50;1.00;;;;;;5092588;28;20546;-62
2022/03/24 05:17:39;;;;;;;32.30;18.03;;;5.40;1.00;;;;;;5092347;28;20453;-62
2022/03/24 05:20:07;;;;;;;38.77;20.03;;;5.40;1.00;;;;;;5092309;28;20503;-62
2022/03/24 05:22:34;;;;;;;34.77;18.20;;;5.40;1.00;;;;;;5092576;28;20453;-62
2022/03/24 05:25:01;;;;;;;37.03;19.33;;;5.40;1.00;;;;;;5092173;28;20497;-62
2022/03/24 05:27:28;;;;;;;36.40;19.20;;;5.30;1.00;;;;;;5092057;28;20503;-61
2022/03/24 05:29:54;;;;;;;36.53;19.70;;;5.30;1.50;;;;;;5092514;28;20457;-61
2022/03/24 05:32:23;;;;;;;34.67;19.93;;;5.20;3.90;;;;;;5092361;28;20454;-61
2022/03/24 05:34:49;;;;;;;38.00;20.53;;;5.20;5.40;;;;;;5092295;28;20556;-62
2022/03/24 05:37:16;;;;;;;34.83;18.67;;;5.10;8.70;;;;;;5091782;28;20454;-62
2022/03/24 05:39:43;;;;;;;39.00;20.30;;;5.10;13.30;;;;;;5092134;28;20459;-62
2022/03/24 05:42:10;;;;;;;39.10;20.07;;;5.10;18.60;;;;;;5089500;28;20454;-62
2022/03/24 05:44:37;;;;;;;37.83;19.47;;;5.00;23.00;;;;;;5092052;28;20485;-62
2022/03/24 05:47:05;;;;;;;36.23;20.63;;;5.00;28.00;;;;;;5092259;28;20446;-63
2022/03/24 05:49:34;;;;;;;42.47;20.53;;;5.00;33.30;;;;;;5091823;28;20870;-62
2022/03/24 05:52:01;;;;;;;39.40;20.70;;;5.00;38.80;;;;;;5091860;28;20460;-62
2022/03/24 05:54:28;;;;;;;38.57;20.10;;;5.00;43.30;;;;;;5091780;28;20441;-63
2022/03/24 05:56:56;;;;;;;38.63;20.43;;;5.00;48.80;;;;;;5091798;28;20446;-62
2022/03/24 05:59:22;;;;;;;37.17;20.73;;;5.00;56.70;;;;;;5091972;28;20452;-63
2022/03/24 06:01:49;;;;;;;36.20;18.87;;;5.00;62.90;;;;;;5091860;28;20488;-62
2022/03/24 06:04:19;;;;;;;39.50;19.63;;;5.10;72.40;;;;;;5091754;28;20438;-62
2022/03/24 06:06:50;;;;;;;37.40;19.93;;;5.10;78.60;;;;;;5090992;28;20549;-62
2022/03/24 06:09:17;;;;;;;37.03;20.90;;;5.10;82.80;;;;;;5091928;28;20493;-62
2022/03/24 06:11:44;;;;;;;38.53;21.17;;;5.20;82.70;;;;;;5090836;28;20449;-62
2022/03/24 06:14:12;;;;;;;48.23;20.37;;;5.20;82.60;;;;;;5091851;28;20442;-62
2022/03/24 06:16:40;;;;;;;44.80;20.50;;;5.30;84.40;;;;;;5091091;28;20478;-64
2022/03/24 06:19:09;;;;;;;35.30;19.77;;;5.40;77.20;;;;;;5078107;28;20446;-64
2022/03/24 06:21:36;;;;;;;36.13;20.33;;;5.40;67.70;;;;;;5091402;28;20812;-65
2022/03/24 06:24:05;;;;;;;37.53;19.67;;;5.50;60.00;;;;;;5090833;28;20442;-65
2022/03/24 06:26:32;;;;;;;42.23;19.43;;;5.60;52.90;;;;;;5090046;28;20489;-64
2022/03/24 06:28:58;;;;;;;41.67;20.80;;;5.70;44.00;;;;;;5090267;28;21179;-62
2022/03/24 06:31:25;;;;;;;41.10;18.87;;;5.80;38.70;;;;;;5091547;28;20454;-63
2022/03/24 06:33:53;;;;;;;36.77;19.60;;;6.00;47.60;;;;;;5090953;28;20484;-62
2022/03/24 06:36:19;;;;;;;42.60;20.10;;;6.10;27.70;;;;;;5090225;28;20505;-62
2022/03/24 06:38:46;;;;;;;38.50;19.67;;;6.40;19.40;;;;;;5091006;28;20454;-62
2022/03/24 06:41:15;;;;;;;36.43;18.87;;;6.70;11.30;;;;;;5090587;28;20458;-63
2022/03/24 06:43:42;;;;;;;35.17;18.33;;;7.00;7.00;;;;;;5091516;28;20645;-63
2022/03/24 06:46:09;;;;;;;34.23;19.90;;;7.20;6.10;;;;;;5090273;28;20491;-63
2022/03/24 06:48:37;;;;;;;41.30;19.83;;;7.50;3.50;;;;;;5091121;28;20207;-64
2022/03/24 06:51:04;;;;;;;46.50;20.37;;;7.70;1.00;;;;;;5090855;28;20239;-65
2022/03/24 06:53:31;;;;;;;41.17;19.33;;;8.00;1.00;;;;;;5092433;28;20610;-65
2022/03/24 06:55:58;;;;;;;36.73;20.07;;;8.20;1.00;;;;;;5090930;28;20227;-65
2022/03/24 06:58:26;;;;;;;40.10;20.27;;;8.30;1.00;;;;;;5090482;28;20212;-62
2022/03/24 07:00:53;;;;;;;41.73;20.03;;;8.50;1.00;;;;;;5090822;28;20297;-61
2022/03/24 07:03:19;;;;;;;36.00;20.43;;;8.60;1.00;;;;;;5090906;28;20615;-63
2022/03/24 07:05:46;;;;;;;38.07;19.73;;;8.70;1.00;;;;;;5090295;28;20648;-62
2022/03/24 07:08:13;;;;;;;41.17;21.03;;;8.90;1.00;;;;;;5090558;28;20580;-64
2022/03/24 07:10:39;;;;;;;43.77;21.30;;;9.00;1.00;;;;;;5090368;28;20264;-62
2022/03/24 07:13:06;;;;;;;40.97;22.63;;;9.10;1.00;;;;;;5090680;28;20208;-62
2022/03/24 07:15:34;;;;;;;43.80;21.70;;;9.30;1.00;;;;;;5090943;28;20224;-61
2022/03/24 07:18:01;;;;;;;41.10;21.13;;;9.60;1.00;;;;;;5089898;28;20208;-62
2022/03/24 07:20:28;;;;;;;44.33;23.67;;;10.00;1.00;;;;;;5090771;28;20212;-62
2022/03/24 07:22:57;;;;;;;42.43;21.97;;;10.20;1.00;;;;;;5091396;28;20208;-63
2022/03/24 07:25:24;;;;;;;41.03;21.03;;;10.20;1.00;;;;;;5094041;28;20220;-64
2022/03/24 07:27:51;;;;;;;38.67;20.57;;;10.30;8.80;;;;;;5093644;28;20251;-63
2022/03/24 07:30:18;;;;;;;44.93;22.70;;;10.40;1.00;;;;;;5093944;28;20204;-62
2022/03/24 07:32:46;;;;;;;45.67;23.57;;;10.50;1.00;;;;;;5094764;28;20213;-64
2022/03/24 07:35:14;;;;;;;35.47;20.13;;;10.70;3.00;;;;;;5093434;28;20686;-64
2022/03/24 07:37:41;;;;;;;43.77;22.07;;;10.90;1.00;;;;;;5093872;28;20202;-63
2022/03/24 07:40:09;;;;;;;41.33;24.20;;;11.20;1.00;;;;;;5093471;28;20254;-63
2022/03/24 07:42:37;;;;;;;41.67;23.07;;;11.40;1.00;;;;;;5093726;28;20204;-62
2022/03/24 07:45:04;;;;;;;43.97;23.37;;;11.40;1.00;;;;;;5093660;28;20224;-63
2022/03/24 07:47:31;;;;;;;43.13;23.57;;;11.40;1.00;;;;;;5093345;28;20586;-63
2022/03/24 07:49:59;;;;;;;41.83;22.27;;;11.30;1.00;;;;;;5093547;28;20201;-62
2022/03/24 07:52:29;;;;;;;43.57;22.33;;;11.30;1.00;;;;;;5093475;28;20258;-63
2022/03/24 07:55:03;;;;;;;45.57;23.50;;;11.20;1.00;;;;;;5093310;28;20232;-63
2022/03/24 07:57:31;;;;;;;44.27;23.70;;;11.20;1.00;;;;;;5093274;28;20210;-64
2022/03/24 07:59:58;;;;;;;50.23;24.47;;;11.30;1.00;;;;;;5093282;28;20272;-66
2022/03/24 08:02:25;;;;;;;43.17;22.70;;;11.40;1.00;;;;;;5093699;28;20236;-64
2022/03/24 08:04:52;;;;;;;47.23;23.10;;;11.50;1.00;;;;;;5093022;28;20640;-63
2022/03/24 08:07:20;;;;;;;47.77;24.53;;;11.60;1.00;;;;;;5092880;28;20242;-63
2022/03/24 08:09:48;;;;;;;47.97;25.30;;;11.70;1.00;;;;;;5092996;28;20211;-62
2022/03/24 08:12:14;;;;;;;44.43;24.83;;;11.90;1.00;;;;;;5093488;28;20248;-61
2022/03/24 08:14:41;;;;;;;53.47;24.77;;;12.00;1.00;;;;;;5093388;28;20204;-64
2022/03/24 08:17:07;;;;;;;45.47;24.73;;;12.10;1.00;;;;;;5078139;28;20227;-64
2022/03/24 08:19:35;;;;;;;49.77;23.93;;;12.10;9.80;;;;;;5072806;28;20686;-63
2022/03/24 08:22:02;;;;;;;44.60;25.00;;;12.20;1.00;;;;;;5072431;28;20722;-62
2022/03/24 08:24:30;;;;;;;50.00;25.97;;;12.30;1.00;;;;;;5072705;28;20694;-64
2022/03/24 08:26:57;;;;;;;49.73;26.47;;;12.40;1.00;;;;;;5072570;28;20628;-62
2022/03/24 08:29:24;;;;;;;47.83;25.37;;;12.50;1.00;;;;;;5072446;28;20212;-62
2022/03/24 08:31:50;;;;;;;50.30;24.77;;;12.60;1.00;;;;;;5073038;28;20209;-63
2022/03/24 08:34:17;;;;;;;46.67;24.43;;;12.60;1.00;;;;;;5071826;28;20219;-63
2022/03/24 08:36:44;;;;;;;;;;;12.80;1.00;;;;;;5072803;28;20052;-62
2022/03/24 08:39:10;;;;;;;;;;;12.90;1.00;;;;;;5073041;28;19924;-61
2022/03/24 08:41:38;;;;;;;;;;;13.00;1.00;;;;;;5072924;28;19927;-61
2022/03/24 08:44:06;;;;;;;50.35;29.48;;;13.00;1.70;;;;;;5071454;28;20466;-61
2022/03/24 08:46:32;;;;;;;48.80;26.00;;;13.10;3.50;;;;;;5071719;28;20579;-61
2022/03/24 08:49:00;;;;;;;;;;;13.20;2.60;;;;;;5072552;28;20076;-62
2022/03/24 08:51:27;;;;;;;;;;;13.40;3.10;;;;;;5073062;28;20256;-61
2022/03/24 08:53:54;;;;;;;;;;;13.50;3.90;;;;;;5072658;28;20343;-64
2022/03/24 08:56:21;;;;;;;;;;;13.60;3.60;;;;;;5072147;28;19942;-63
2022/03/24 08:58:49;;;;;;;;;;;13.60;3.90;;;;;;5071907;28;20398;-62
2022/03/24 09:01:15;;;;;;;;;;;13.70;4.50;;;;;;5073005;28;19932;-63
2022/03/24 09:03:42;;;;;;;;;;;13.70;4.30;;;;;;5072379;28;19927;-62
2022/03/24 09:06:09;;;;;;;;;;;13.80;3.80;;;;;;5071823;28;19920;-62
2022/03/24 09:08:36;;;;;;;;;;;13.80;3.50;;;;;;5072239;28;20352;-64
2022/03/24 09:11:03;;;;;;;;;;;13.90;4.60;;;;;;5072208;28;19966;-65
2022/03/24 09:13:29;;;;;;;;;;;13.90;3.80;;;;;;5072183;28;19926;-64
2022/03/24 09:15:57;;;;;;;;;;;13.90;3.30;;;;;;5071287;28;20001;-63
2022/03/24 09:18:24;;;;;;;;;;;14.00;15.50;;;;;;5071810;28;20537;-64
2022/03/24 09:20:50;;;;;;;;;;;14.10;4.30;;;;;;5071965;28;19920;-65
2022/03/24 09:23:17;;;;;;;50.67;29.33;;;14.00;3.40;;;;;;5070470;28;20807;-64
2022/03/24 09:25:44;;;;;;;51.05;31.77;;;14.10;7.90;;;;;;5070041;28;20421;-61
2022/03/24 09:28:11;;;;;;;49.53;30.60;;;14.30;9.70;;;;;;5069659;28;20419;-61
2022/03/24 09:30:40;;;;;;;50.45;30.35;;;14.60;9.00;;;;;;5070449;28;20524;-61
2022/03/24 09:33:09;;;;;;;48.83;32.27;;;14.90;11.40;;;;;;5069921;28;20419;-61
2022/03/24 09:35:36;;;;;;;50.22;30.98;;;15.10;11.90;;;;;;5070318;28;20457;-62
2022/03/24 09:38:03;;;;;;;49.17;30.33;;;15.30;11.60;;;;;;5069201;28;20521;-62
2022/03/24 09:40:30;;;;;;;48.53;31.67;;;15.30;9.00;;;;;;5070224;28;20502;-62
2022/03/24 09:42:57;;;;;;;49.77;31.37;;;15.20;9.20;;;;;;5069916;28;20836;-61
2022/03/24 09:45:26;;;;;;;48.65;30.40;;;15.30;9.70;;;;;;5068809;28;20783;-62
2022/03/24 09:47:53;;;;;;;49.28;30.63;;;15.30;9.50;;;;;;5070083;28;20422;-62
2022/03/24 09:50:24;;;;;;;49.58;30.38;;;15.40;11.00;;;;;;5085870;28;20425;-62
2022/03/24 09:52:52;;;;;;;47.25;29.40;;;15.60;9.30;;;;;;5090413;28;20410;-62
2022/03/24 09:55:19;;;;;;;49.35;29.45;;;15.80;10.40;;;;;;5090034;28;20465;-64
2022/03/24 09:57:47;;;;;;;48.88;30.25;;;15.90;9.70;;;;;;5089739;28;20406;-63
2022/03/24 10:00:16;;;;;;;43.53;28.20;;;15.90;9.80;;;;;;5090195;28;20479;-68
2022/03/24 10:02:43;;;;;;;44.80;28.90;;;15.80;10.60;;;;;;5090242;28;20470;-64
2022/03/24 10:05:18;;;;;;;42.42;28.75;;;16.00;11.00;;;;;;5089835;28;20845;-62
2022/03/24 10:07:47;;;;;;;47.35;30.05;;;16.20;11.30;;;;;;5089322;28;20463;-63
2022/03/24 10:10:24;;;;;;;43.65;28.88;;;16.20;11.20;;;;;;5089849;28;20475;-63
2022/03/24 10:12:51;;;;;;;46.67;29.60;;;16.30;11.00;;;;;;5089966;28;20495;-63
2022/03/24 10:15:18;;;;;;;46.05;30.10;;;16.50;12.20;;;;;;5089901;28;20935;-63
2022/03/24 10:17:52;;;;;;;45.15;30.02;;;16.60;14.50;;;;;;5089423;28;20409;-63
2022/03/24 10:20:19;;;;;;;45.08;29.50;;;16.70;13.50;;;;;;5089404;28;20412;-65
2022/03/24 10:22:55;;;;;;;47.75;31.38;;;16.70;8.80;;;;;;5089750;28;20916;-64
2022/03/24 10:25:23;;;;;;;46.80;30.83;;;16.40;11.20;;;;;;5089511;28;20541;-65
2022/03/24 10:27:51;;;;;;;44.78;30.13;;;16.20;7.50;;;;;;5089486;28;20450;-65
2022/03/24 10:30:18;;;;;;;49.95;29.95;;;16.40;8.40;;;;;;5089490;28;20414;-65
2022/03/24 10:32:55;;;;;;;43.42;28.45;;;16.70;9.60;;;;;;5089826;28;20409;-65
2022/03/24 10:35:22;;;;;;;46.92;30.55;;;16.80;10.70;;;;;;5089536;28;20441;-65
2022/03/24 10:37:50;;;;;;;41.70;26.73;;;16.80;9.30;;;;;;5089153;28;20405;-63
2022/03/24 10:40:19;;;;;;;47.03;29.65;;;16.80;9.90;;;;;;5089563;28;20417;-61
2022/03/24 10:42:46;;;;;;;43.97;28.77;;;16.90;9.50;;;;;;5089341;28;20410;-62
2022/03/24 10:45:15;;;;;;;44.00;30.02;;;16.90;11.40;;;;;;5089796;28;20973;-65
2022/03/24 10:47:48;;;;;;;50.50;31.27;;;17.10;13.50;;;;;;5089185;28;20422;-66
2022/03/24 10:50:27;;;;;;;49.55;30.85;;;17.20;14.60;;;;;;5089253;28;20417;-64
2022/03/24 10:52:55;;;;;;;41.67;27.40;;;17.10;12.80;;;;;;5090256;28;20469;-64
2022/03/24 10:55:32;;;;;;;36.97;26.13;;;17.20;9.90;;;;;;5089257;28;20497;-62
2022/03/24 10:58:00;;;;;;;40.97;26.37;;;16.80;5.90;;;;;;5092119;28;20814;-65
2022/03/24 11:00:27;;;;;;;40.27;26.47;;;16.80;4.80;;;;;;5092883;28;20464;-62
2022/03/24 11:02:54;;;;;;;44.33;27.80;;;16.60;1.10;;;;;;5093432;28;20467;-63
2022/03/24 11:05:20;;;;;;;44.78;29.00;;;16.60;2.90;;;;;;5092988;28;20935;-62
2022/03/24 11:07:54;;;;;;;44.33;27.52;;;16.80;4.20;;;;;;5092414;28;20417;-64
2022/03/24 11:10:22;;;;;;;39.97;26.40;;;16.60;1.70;;;;;;5093137;28;20505;-63
2022/03/24 11:12:53;;;;;;;42.97;28.48;;;16.80;2.90;;;;;;5092926;28;20413;-65
2022/03/24 11:15:20;;;;;;;41.13;27.83;;;16.80;2.20;;;;;;5093413;28;20444;-62
2022/03/24 11:17:48;;;;;;;43.97;27.40;;;17.00;4.70;;;;;;5093083;28;20441;-64
2022/03/24 11:20:23;;;;;;;39.85;26.20;;;17.20;6.00;;;;;;5092552;28;20769;-63
2022/03/24 11:22:51;;;;;;;39.65;25.42;;;17.40;7.50;;;;;;5093984;28;20414;-63
2022/03/24 11:25:19;;;;;;;40.40;25.67;;;17.60;9.50;;;;;;5092298;28;20412;-63
2022/03/24 11:27:46;;;;;;;37.85;22.10;;;17.80;8.80;;;;;;5092815;28;20429;-63
2022/03/24 11:30:16;;;;;;;32.90;20.83;;;17.60;6.60;;;;;;5092481;28;20414;-63
2022/03/24 11:32:44;;;;;;;42.75;24.55;;;17.30;4.20;;;;;;5094328;28;20409;-63
2022/03/24 11:35:12;;;;;;;38.00;25.08;;;17.30;3.40;;;;;;5086366;28;20418;-65
2022/03/24 11:37:40;;;;;;;36.88;24.27;;;17.60;6.80;;;;;;5072092;28;20411;-63
2022/03/24 11:40:10;;;;;;;39.17;26.42;;;17.40;7.60;;;;;;5072292;28;20447;-63
2022/03/24 11:42:44;;;;;;;41.97;25.92;;;17.50;3.40;;;;;;5072271;28;20412;-64
2022/03/24 11:45:19;;;;;;;35.90;22.25;;;17.40;3.20;;;;;;5072408;28;20412;-64
2022/03/24 11:47:56;;;;;;;38.35;25.25;;;17.60;2.40;;;;;;5071712;28;20534;-64
2022/03/24 11:50:45;;;;;;;40.50;25.67;;;17.70;3.30;;;;;;5071708;28;20426;-64
2022/03/24 11:53:16;;;;;;;40.67;25.60;;;17.70;4.30;;;;;;5072246;28;20495;-63
2022/03/24 11:56:14;;;;;;;39.38;25.20;;;17.90;6.30;;;;;;5071764;28;20755;-64
2022/03/24 11:59:01;;;;;;;39.80;25.95;;;17.80;3.60;;;;;;5071537;28;20404;-66
2022/03/24 12:01:32;;;;;;;41.42;25.90;;;18.00;6.80;;;;;;5059155;28;20432;-64
2022/03/24 12:04:01;;;;;;;38.75;25.73;;;18.00;7.00;;;;;;5071888;28;20447;-64
2022/03/24 12:06:51;;;;;;;41.15;26.10;;;18.00;5.70;;;;;;5070967;28;20836;-65
2022/03/24 12:09:21;;;;;;;37.30;25.30;;;17.90;3.30;;;;;;5070426;28;20926;-66
2022/03/24 12:11:50;;;;;;;40.03;25.23;;;18.00;4.40;;;;;;5071812;28;20781;-66
2022/03/24 12:14:20;;;;;;;41.25;26.33;;;18.00;3.00;;;;;;5071603;28;20420;-64
2022/03/24 12:16:49;;;;;;;40.15;25.83;;;17.80;2.80;;;;;;5071249;28;20800;-65
2022/03/24 12:19:35;;;;;;;40.65;26.10;;;18.00;3.00;;;;;;5070572;28;20411;-64
2022/03/24 12:22:19;;;;;;;41.72;26.42;;;18.00;3.90;;;;;;5071721;28;20543;-64
2022/03/24 12:24:46;;;;;;;39.90;26.42;;;18.20;4.50;;;;;;5070906;28;20911;-65
2022/03/24 12:27:16;;;;;;;40.00;26.60;;;18.20;7.70;;;;;;5070988;28;20518;-66
2022/03/24 12:29:43;;;;;;;39.33;26.23;;;18.10;3.40;;;;;;5070685;28;20420;-64
2022/03/24 12:32:11;;;;;;;40.10;26.45;;;18.10;2.70;;;;;;5070981;28;20424;-65
2022/03/24 12:34:44;;;;;;;41.70;27.00;;;18.10;2.50;;;;;;5070991;28;20498;-65
2022/03/24 12:37:37;;;;;;;38.58;26.70;;;18.10;1.90;;;;;;5070565;28;20461;-64
2022/03/24 12:40:11;;;;;;;41.22;28.38;;;17.90;1.00;;;;;;5070522;28;20434;-64
2022/03/24 12:42:40;;;;;;;41.72;27.33;;;18.00;1.00;;;;;;5070678;28;20415;-64
2022/03/24 12:45:08;;;;;;;45.08;27.77;;;18.20;2.10;;;;;;5071033;28;20443;-65
2022/03/24 12:47:38;;;;;;;42.70;27.73;;;18.30;2.90;;;;;;5070266;28;21096;-66
2022/03/24 12:50:10;;;;;;;42.25;27.90;;;18.30;2.30;;;;;;5070204;28;20423;-67